Time;durP1;ratioP1;P1;durP2;ratioP2;P2;SDS_P1;SDS_P2;PMS_P1;PMS_P2;Temp;Humidity;BMP_temperature;BMP_pressure;BME280_temperature;BME280_humidity;BME280_pressure;Samples;Min_cycle;Max_cycle;Signal;HPM_P1;HPM_P2
2023/06/22 00:01:18;;;;;;;8.07;7.00;;;23.60;99.90;;;;;;4995231;28;20470;-85
2023/06/22 00:03:44;;;;;;;7.47;6.00;;;23.60;99.90;;;;;;5000915;28;20458;-85
2023/06/22 00:06:09;;;;;;;7.60;6.90;;;23.60;99.90;;;;;;5000209;28;20504;-85
2023/06/22 00:08:35;;;;;;;7.83;6.77;;;23.60;99.90;;;;;;5001798;28;20282;-85
2023/06/22 00:11:01;;;;;;;7.40;6.70;;;23.60;99.90;;;;;;4999491;28;20210;-84
2023/06/22 00:13:26;;;;;;;6.80;6.00;;;23.60;99.90;;;;;;4994940;28;20183;-85
2023/06/22 00:15:52;;;;;;;7.97;7.17;;;23.60;99.90;;;;;;5000574;28;20245;-84
2023/06/22 00:18:17;;;;;;;7.40;6.70;;;23.50;99.90;;;;;;5003845;28;20213;-85
2023/06/22 00:20:45;;;;;;;9.63;6.90;;;23.40;99.90;;;;;;5005588;28;20214;-85
2023/06/22 00:23:11;;;;;;;9.27;8.27;;;23.50;99.90;;;;;;5004075;28;20195;-85
2023/06/22 00:25:37;;;;;;;8.30;7.50;;;23.40;99.90;;;;;;4999716;28;20509;-85
2023/06/22 00:28:04;;;;;;;8.50;7.53;;;23.40;99.90;;;;;;5002175;28;20183;-85
2023/06/22 00:30:31;;;;;;;8.03;7.13;;;23.40;99.90;;;;;;4991959;28;20488;-85
2023/06/22 00:32:58;;;;;;;9.13;7.93;;;23.40;99.90;;;;;;5000876;28;20441;-85
2023/06/22 00:35:28;;;;;;;8.43;7.40;;;23.30;99.90;;;;;;4999970;28;20806;-85
2023/06/22 00:38:00;;;;;;;7.93;7.13;;;23.30;99.90;;;;;;4999894;28;20434;-85
2023/06/22 00:40:32;;;;;;;9.10;8.20;;;23.30;99.90;;;;;;4993354;28;21095;-85
2023/06/22 00:42:58;;;;;;;11.03;9.90;;;23.30;99.90;;;;;;4997026;28;20442;-85
2023/06/22 00:45:25;;;;;;;11.23;8.27;;;23.20;99.90;;;;;;4997852;28;20496;-84
2023/06/22 00:47:56;;;;;;;8.73;7.87;;;23.20;99.90;;;;;;4998344;28;20451;-85
2023/06/22 00:50:23;;;;;;;10.10;8.20;;;23.20;99.90;;;;;;4991384;28;20475;-85
2023/06/22 00:52:58;;;;;;;12.40;9.27;;;23.10;99.90;;;;;;5001300;28;20810;-85
2023/06/22 00:55:25;;;;;;;10.27;8.90;;;23.10;99.90;;;;;;4997260;28;20530;-84
2023/06/22 00:57:55;;;;;;;19.40;9.47;;;23.10;99.90;;;;;;4997445;28;20488;-84
2023/06/22 01:00:24;;;;;;;10.23;9.00;;;23.00;99.90;;;;;;4999135;28;20480;-85
2023/06/22 01:02:51;;;;;;;10.00;8.53;;;22.90;99.90;;;;;;5000905;28;20480;-85
2023/06/22 01:05:18;;;;;;;11.90;9.73;;;22.90;99.90;;;;;;4998643;28;20452;-84
2023/06/22 01:08:06;;;;;;;12.97;9.47;;;22.90;99.90;;;;;;4997606;28;20488;-84
2023/06/22 01:11:06;;;;;;;13.00;9.60;;;22.80;99.90;;;;;;4994971;28;20527;-85
2023/06/22 01:13:55;;;;;;;11.47;9.00;;;22.80;99.90;;;;;;4998372;28;20429;-86
2023/06/22 01:16:26;;;;;;;11.80;9.37;;;22.70;99.90;;;;;;4997050;28;20468;-85
2023/06/22 01:18:55;;;;;;;11.80;9.10;;;22.70;99.90;;;;;;4999299;28;20478;-85
2023/06/22 01:21:24;;;;;;;11.43;9.20;;;22.60;99.90;;;;;;5001265;28;20453;-85
2023/06/22 01:24:29;;;;;;;14.70;9.33;;;22.50;99.90;;;;;;4997281;28;20453;-85
2023/06/22 01:27:36;;;;;;;10.50;9.00;;;22.50;99.90;;;;;;4997279;28;20483;-84
2023/06/22 01:30:05;;;;;;;21.03;11.53;;;22.40;99.90;;;;;;4995927;28;20541;-85
2023/06/22 01:32:32;;;;;;;13.37;10.00;;;22.40;99.90;;;;;;4987408;28;20452;-85
2023/06/22 01:35:00;;;;;;;12.43;9.30;;;22.30;99.90;;;;;;4996784;28;21192;-85
2023/06/22 01:37:28;;;;;;;12.40;10.97;;;22.30;99.90;;;;;;4995400;28;20447;-83
2023/06/22 01:39:54;;;;;;;11.70;10.13;;;22.20;99.90;;;;;;4993166;28;20474;-85
2023/06/22 01:42:20;;;;;;;11.80;9.30;;;22.10;99.90;;;;;;5000222;28;20440;-84
2023/06/22 01:44:46;;;;;;;12.90;10.40;;;22.10;99.90;;;;;;4999801;28;20817;-85
2023/06/22 01:47:13;;;;;;;11.97;10.70;;;22.00;99.90;;;;;;4998230;28;20194;-85
2023/06/22 01:49:40;;;;;;;12.43;10.83;;;22.00;99.90;;;;;;4998340;28;20483;-84
2023/06/22 01:52:07;;;;;;;12.87;10.43;;;22.00;99.90;;;;;;4999774;28;20522;-85
2023/06/22 01:54:32;;;;;;;14.23;9.80;;;22.00;99.90;;;;;;5003812;28;20468;-85
2023/06/22 01:56:58;;;;;;;13.30;11.90;;;22.00;99.90;;;;;;4993260;28;20453;-85
2023/06/22 01:59:34;;;;;;;16.00;11.13;;;22.00;99.90;;;;;;4993275;28;20591;-84
2023/06/22 02:02:06;;;;;;;12.53;11.20;;;22.10;99.90;;;;;;4996280;28;20183;-84
2023/06/22 02:04:42;;;;;;;12.73;11.30;;;22.10;99.90;;;;;;4995541;28;20436;-85
2023/06/22 02:07:12;;;;;;;12.93;11.53;;;22.10;99.90;;;;;;4998941;28;20443;-84
2023/06/22 02:09:42;;;;;;;13.57;12.00;;;22.10;99.90;;;;;;5009868;28;20475;-84
2023/06/22 02:12:10;;;;;;;13.23;10.90;;;22.10;99.90;;;;;;4989104;28;20504;-84
2023/06/22 02:14:36;;;;;;;13.23;11.30;;;22.10;99.90;;;;;;4996800;28;20445;-85
2023/06/22 02:17:04;;;;;;;19.23;11.50;;;22.10;99.90;;;;;;5003029;28;20440;-84
2023/06/22 02:19:33;;;;;;;12.63;10.23;;;22.10;99.90;;;;;;4998143;28;20479;-85
2023/06/22 02:21:58;;;;;;;18.17;13.07;;;22.20;99.90;;;;;;4989989;28;20456;-85
2023/06/22 02:24:24;;;;;;;12.47;11.17;;;22.10;99.90;;;;;;4999095;28;20445;-84
2023/06/22 02:26:49;;;;;;;11.10;10.00;;;22.10;99.90;;;;;;4999920;28;20221;-85
2023/06/22 02:29:15;;;;;;;12.53;11.13;;;22.10;99.90;;;;;;4995198;28;20218;-85
2023/06/22 02:31:41;;;;;;;12.73;11.43;;;22.10;99.90;;;;;;4998670;28;20189;-85
2023/06/22 02:34:06;;;;;;;12.67;10.50;;;22.00;99.90;;;;;;5003144;28;20185;-85
2023/06/22 02:36:33;;;;;;;12.30;10.67;;;22.00;99.90;;;;;;5001503;28;20191;-85
2023/06/22 02:39:01;;;;;;;14.30;12.47;;;22.10;99.90;;;;;;5002050;28;20271;-85
2023/06/22 02:41:26;;;;;;;12.80;11.60;;;22.10;99.90;;;;;;4995679;28;20478;-85
2023/06/22 02:43:52;;;;;;;11.87;10.77;;;22.10;99.90;;;;;;4999432;28;20433;-85
2023/06/22 02:46:17;;;;;;;13.33;11.00;;;22.20;99.90;;;;;;5002484;28;20196;-85
2023/06/22 02:48:43;;;;;;;17.60;11.90;;;22.20;99.90;;;;;;5003448;28;20201;-85
2023/06/22 02:51:08;;;;;;;13.83;12.47;;;22.20;99.90;;;;;;5010666;28;20212;-84
2023/06/22 02:53:34;;;;;;;15.17;11.07;;;22.20;99.90;;;;;;4998967;28;20742;-85
2023/06/22 02:56:03;;;;;;;18.47;12.40;;;22.20;99.90;;;;;;5002753;28;20208;-85
2023/06/22 02:58:28;;;;;;;18.00;13.90;;;22.30;99.90;;;;;;4999467;28;20284;-86
2023/06/22 03:00:54;;;;;;;20.37;12.73;;;22.30;99.90;;;;;;5002116;28;20499;-85
2023/06/22 03:03:20;;;;;;;14.27;11.37;;;22.30;99.90;;;;;;5001504;28;20180;-85
2023/06/22 03:05:45;;;;;;;13.77;11.03;;;22.30;99.90;;;;;;4998170;28;20185;-85
2023/06/22 03:08:11;;;;;;;13.97;12.47;;;22.30;99.90;;;;;;5002670;28;20189;-85
2023/06/22 03:10:37;;;;;;;14.50;12.40;;;22.30;99.90;;;;;;4999548;28;20223;-85
2023/06/22 03:13:02;;;;;;;12.00;10.43;;;22.20;99.90;;;;;;5002815;28;20252;-85
2023/06/22 03:15:29;;;;;;;12.10;10.80;;;22.20;99.90;;;;;;4997965;28;20185;-85
2023/06/22 03:17:55;;;;;;;15.43;11.90;;;22.20;99.90;;;;;;4996168;28;20614;-84
2023/06/22 03:20:20;;;;;;;15.00;11.53;;;22.20;99.90;;;;;;4999372;28;20491;-85
2023/06/22 03:22:46;;;;;;;13.47;10.67;;;22.20;99.90;;;;;;4989243;28;20177;-85
2023/06/22 03:25:15;;;;;;;16.67;12.07;;;22.20;99.90;;;;;;4993292;28;20193;-85
2023/06/22 03:27:41;;;;;;;13.10;10.47;;;22.20;1.00;;;;;;4994178;28;20189;-84
2023/06/22 03:30:09;;;;;;;17.70;12.97;;;22.10;1.00;;;;;;4998304;28;20839;-85
2023/06/22 03:32:35;;;;;;;15.07;13.17;;;22.10;1.00;;;;;;4993312;28;20442;-85
2023/06/22 03:35:02;;;;;;;17.70;12.47;;;22.10;1.00;;;;;;4987456;28;20456;-85
2023/06/22 03:37:27;;;;;;;14.57;11.57;;;22.10;1.00;;;;;;5004150;28;20690;-85
2023/06/22 03:39:53;;;;;;;15.20;12.30;;;22.10;1.00;;;;;;4995486;28;20443;-85
2023/06/22 03:42:19;;;;;;;14.10;12.13;;;22.10;1.00;;;;;;4984232;28;20182;-85
2023/06/22 03:44:44;;;;;;;15.43;11.60;;;22.10;1.00;;;;;;4994649;28;20237;-85
2023/06/22 03:47:10;;;;;;;14.03;12.33;;;22.10;1.00;;;;;;4993731;28;20730;-84
2023/06/22 03:49:36;;;;;;;15.57;13.13;;;22.10;1.00;;;;;;4985552;28;20214;-85
2023/06/22 03:52:02;;;;;;;14.13;12.73;;;22.20;1.00;;;;;;4994658;28;20192;-84
2023/06/22 03:54:31;;;;;;;14.53;12.07;;;22.20;1.00;;;;;;5000031;28;20198;-85
2023/06/22 03:56:58;;;;;;;17.53;13.13;;;22.20;1.00;;;;;;4995124;28;20546;-85
2023/06/22 03:59:24;;;;;;;14.70;13.10;;;22.20;1.00;;;;;;4992636;28;20457;-85
2023/06/22 04:01:50;;;;;;;16.30;13.47;;;22.20;1.00;;;;;;4994453;28;22611;-85
2023/06/22 04:04:16;;;;;;;18.20;13.70;;;22.20;1.00;;;;;;5000029;28;20445;-85
2023/06/22 04:06:41;;;;;;;18.50;13.33;;;22.20;1.00;;;;;;5000878;28;20455;-85
2023/06/22 04:09:07;;;;;;;18.17;14.27;;;22.20;1.00;;;;;;5000548;28;20460;-85
2023/06/22 04:11:32;;;;;;;15.63;13.50;;;22.20;1.00;;;;;;4999823;28;20220;-85
2023/06/22 04:13:58;;;;;;;18.23;15.50;;;22.20;1.00;;;;;;5001187;28;20520;-83
2023/06/22 04:16:23;;;;;;;18.50;14.93;;;22.30;1.00;;;;;;4995418;28;20197;-85
2023/06/22 04:18:49;;;;;;;14.77;13.27;;;22.20;1.00;;;;;;5000425;28;20676;-85
2023/06/22 04:21:15;;;;;;;22.87;15.30;;;22.20;1.00;;;;;;4998760;28;20375;-85
2023/06/22 04:23:40;;;;;;;14.03;12.00;;;22.10;1.00;;;;;;4994069;28;20285;-85
2023/06/22 04:26:06;;;;;;;19.03;13.53;;;22.10;1.00;;;;;;5000919;28;20612;-84
2023/06/22 04:28:35;;;;;;;18.63;14.23;;;22.10;1.00;;;;;;5004098;28;20177;-85
2023/06/22 04:31:02;;;;;;;22.53;15.00;;;22.10;1.00;;;;;;4998490;28;20204;-85
2023/06/22 04:33:29;;;;;;;16.77;14.07;;;22.10;1.00;;;;;;5002176;28;20462;-84
2023/06/22 04:35:56;;;;;;;16.23;14.50;;;22.00;1.00;;;;;;5003448;28;20427;-84
2023/06/22 04:38:22;;;;;;;17.07;13.10;;;22.00;1.00;;;;;;4994289;28;20433;-85
2023/06/22 04:40:48;;;;;;;12.93;9.97;;;22.00;1.00;;;;;;5000306;28;20518;-83
2023/06/22 04:43:13;;;;;;;16.00;13.00;;;22.10;1.00;;;;;;4993377;28;20441;-84
2023/06/22 04:45:39;;;;;;;19.73;13.40;;;22.10;1.00;;;;;;5003377;28;20208;-85
2023/06/22 04:48:05;;;;;;;16.57;12.50;;;22.20;1.00;;;;;;5000103;28;20289;-85
2023/06/22 04:50:34;;;;;;;17.33;14.30;;;22.30;1.00;;;;;;4999112;28;20501;-84
2023/06/22 04:52:59;;;;;;;18.03;14.13;;;22.30;1.00;;;;;;4999796;28;20445;-85
2023/06/22 04:55:25;;;;;;;13.47;12.07;;;22.30;1.00;;;;;;4996436;28;20456;-85
2023/06/22 04:57:51;;;;;;;17.50;12.53;;;22.40;1.00;;;;;;5000546;28;20225;-85
2023/06/22 05:00:22;;;;;;;17.60;13.40;;;22.40;1.00;;;;;;4999951;28;20213;-85
2023/06/22 05:02:48;;;;;;;18.77;12.40;;;22.40;1.00;;;;;;4997735;28;20456;-84
2023/06/22 05:05:14;;;;;;;14.23;12.80;;;22.50;1.00;;;;;;4997526;28;20445;-85
2023/06/22 05:07:43;;;;;;;18.33;12.80;;;22.50;1.00;;;;;;4983278;28;20200;-85
2023/06/22 05:10:11;;;;;;;21.50;12.60;;;22.50;1.00;;;;;;4997350;28;20477;-83
2023/06/22 05:12:37;;;;;;;15.33;13.73;;;22.60;1.00;;;;;;4993432;28;20466;-85
2023/06/22 05:15:02;;;;;;;22.43;13.33;;;22.60;1.00;;;;;;4997786;28;20445;-84
2023/06/22 05:17:28;;;;;;;21.67;13.30;;;22.70;1.00;;;;;;5000835;28;20194;-85
2023/06/22 05:19:54;;;;;;;14.50;12.80;;;22.70;1.00;;;;;;4997950;28;20264;-85
2023/06/22 05:22:20;;;;;;;14.43;12.97;;;22.70;1.00;;;;;;4998544;28;20182;-84
2023/06/22 05:24:46;;;;;;;19.23;14.00;;;22.70;1.00;;;;;;4986215;28;20445;-82
2023/06/22 05:27:12;;;;;;;18.53;13.10;;;22.70;1.00;;;;;;4992946;28;20676;-84
2023/06/22 05:29:37;;;;;;;13.17;10.17;;;22.70;1.00;;;;;;4989580;28;20481;-83
2023/06/22 05:32:03;;;;;;;15.23;13.20;;;22.70;1.00;;;;;;4989650;28;20230;-85
2023/06/22 05:34:29;;;;;;;18.03;13.23;;;22.70;1.00;;;;;;4989557;28;20195;-84
2023/06/22 05:36:54;;;;;;;14.30;12.80;;;22.70;1.00;;;;;;4996682;28;20433;-84
2023/06/22 05:39:20;;;;;;;18.07;13.50;;;22.80;1.00;;;;;;4987637;28;20229;-84
2023/06/22 05:41:46;;;;;;;16.53;12.50;;;22.80;1.00;;;;;;4988531;28;20286;-84
2023/06/22 05:44:12;;;;;;;15.83;12.63;;;22.80;1.00;;;;;;4993335;28;20182;-84
2023/06/22 05:46:44;;;;;;;15.37;10.97;;;22.90;1.00;;;;;;4987693;28;20433;-83
2023/06/22 05:49:10;;;;;;;16.60;12.57;;;23.00;1.00;;;;;;4987717;28;20215;-83
2023/06/22 05:51:35;;;;;;;12.33;11.03;;;23.10;1.00;;;;;;4981827;28;20511;-84
2023/06/22 05:54:01;;;;;;;15.90;12.20;;;23.20;1.00;;;;;;4993256;28;20517;-85
2023/06/22 05:56:26;;;;;;;20.13;11.80;;;23.30;1.00;;;;;;4989221;28;20214;-86
2023/06/22 05:58:52;;;;;;;16.20;12.33;;;23.30;1.00;;;;;;4981801;28;20242;-83
2023/06/22 06:01:17;;;;;;;16.50;11.27;;;23.40;1.00;;;;;;4987353;28;20292;-85
2023/06/22 06:03:44;;;;;;;18.70;14.33;;;23.40;1.00;;;;;;4985565;28;20278;-84
2023/06/22 06:06:10;;;;;;;15.50;12.80;;;23.50;1.00;;;;;;4996658;28;20261;-82
2023/06/22 06:08:36;;;;;;;16.10;12.93;;;23.50;1.00;;;;;;5001808;28;20449;-84
2023/06/22 06:11:02;;;;;;;15.97;12.50;;;23.60;1.00;;;;;;4995001;28;20463;-84
2023/06/22 06:13:27;;;;;;;19.03;14.10;;;23.60;1.00;;;;;;4996925;28;20509;-84
2023/06/22 06:15:55;;;;;;;14.50;12.37;;;23.60;99.90;;;;;;4996372;28;20198;-84
2023/06/22 06:18:20;;;;;;;20.53;12.47;;;23.70;99.90;;;;;;5002539;28;20231;-83
2023/06/22 06:20:46;;;;;;;18.03;14.30;;;23.60;99.90;;;;;;4995288;28;20858;-83
2023/06/22 06:23:11;;;;;;;16.27;13.50;;;23.70;99.90;;;;;;4994806;28;20790;-84
2023/06/22 06:25:37;;;;;;;17.13;14.20;;;23.60;99.90;;;;;;5000973;28;20582;-82
2023/06/22 06:28:03;;;;;;;17.70;14.10;;;23.60;99.90;;;;;;4997241;28;20666;-84
2023/06/22 06:30:29;;;;;;;17.17;13.20;;;23.60;99.90;;;;;;4994644;28;20232;-84
2023/06/22 06:32:55;;;;;;;20.33;14.40;;;23.50;99.90;;;;;;4990624;28;20438;-84
2023/06/22 06:35:21;;;;;;;16.03;13.87;;;23.50;99.90;;;;;;4987060;28;20196;-84
2023/06/22 06:37:48;;;;;;;22.67;15.40;;;23.50;99.90;;;;;;4983331;28;20533;-84
2023/06/22 06:40:15;;;;;;;14.40;12.07;;;23.40;99.90;;;;;;4997739;28;20469;-84
2023/06/22 06:42:44;;;;;;;18.80;13.27;;;23.40;99.90;;;;;;4992654;28;20430;-81
2023/06/22 06:45:11;;;;;;;20.87;12.37;;;23.50;99.90;;;;;;4994324;28;20442;-84
2023/06/22 06:47:36;;;;;;;16.07;14.17;;;23.60;99.90;;;;;;4992662;28;20431;-83
2023/06/22 06:50:03;;;;;;;21.67;13.87;;;23.70;99.90;;;;;;4995358;28;20485;-84
2023/06/22 06:52:29;;;;;;;19.87;13.90;;;23.70;99.90;;;;;;4991748;28;20185;-84
2023/06/22 06:54:55;;;;;;;18.43;14.60;;;23.70;99.90;;;;;;4991155;28;20444;-84
2023/06/22 06:57:20;;;;;;;18.07;14.13;;;23.90;99.90;;;;;;4987594;28;20209;-84
2023/06/22 06:59:46;;;;;;;18.63;13.60;;;24.00;99.90;;;;;;4999383;28;20236;-84
2023/06/22 07:02:12;;;;;;;19.93;15.50;;;24.20;99.90;;;;;;4997962;28;20194;-84
2023/06/22 07:04:37;;;;;;;23.07;15.73;;;24.40;99.90;;;;;;4996589;28;20185;-82
2023/06/22 07:07:03;;;;;;;16.47;14.30;;;24.50;99.90;;;;;;4998824;28;20196;-84
2023/06/22 07:09:29;;;;;;;16.97;15.07;;;24.70;99.90;;;;;;5001209;28;20596;-84
2023/06/22 07:11:54;;;;;;;17.10;13.20;;;24.70;99.90;;;;;;4997617;28;20208;-84
2023/06/22 07:14:20;;;;;;;16.80;13.93;;;24.90;99.90;;;;;;4999213;28;20261;-84
2023/06/22 07:16:45;;;;;;;22.33;15.07;;;25.10;99.90;;;;;;4997369;28;20205;-83
2023/06/22 07:19:14;;;;;;;18.23;13.47;;;25.40;99.90;;;;;;5001278;28;20187;-84
2023/06/22 07:21:39;;;;;;;14.93;13.00;;;25.90;99.90;;;;;;4998257;28;20362;-83
2023/06/22 07:24:06;;;;;;;14.67;12.50;;;26.60;99.90;;;;;;4998372;28;20553;-84
2023/06/22 07:26:33;;;;;;;13.90;11.30;;;28.40;99.90;;;;;;4989567;28;20191;-83
2023/06/22 07:28:58;;;;;;;13.13;10.97;;;30.40;99.90;;;;;;4995485;28;20462;-84
2023/06/22 07:31:25;;;;;;;16.40;12.93;;;30.70;99.90;;;;;;5000705;28;20832;-84
2023/06/22 07:33:50;;;;;;;15.10;12.40;;;31.40;99.90;;;;;;4996900;28;20184;-84
2023/06/22 07:36:17;;;;;;;17.43;13.20;;;32.30;99.90;;;;;;4994427;28;20441;-83
2023/06/22 07:38:43;;;;;;;14.10;12.60;;;33.10;99.90;;;;;;4998215;28;20192;-83
2023/06/22 07:41:08;;;;;;;15.20;11.60;;;33.30;99.90;;;;;;4999751;28;20536;-83
2023/06/22 07:43:36;;;;;;;13.00;11.47;;;35.20;99.90;;;;;;4999992;28;20180;-84
2023/06/22 07:46:03;;;;;;;13.43;11.03;;;38.80;99.90;;;;;;4996430;28;20259;-85
2023/06/22 07:48:28;;;;;;;11.90;10.53;;;41.20;99.90;;;;;;5003925;28;20522;-82
2023/06/22 07:50:54;;;;;;;10.23;9.43;;;43.60;98.70;;;;;;4997301;28;20506;-82
2023/06/22 07:53:20;;;;;;;13.73;11.40;;;44.40;92.40;;;;;;4999954;28;20187;-82
2023/06/22 07:55:45;;;;;;;11.50;10.40;;;44.10;79.40;;;;;;4999361;28;20258;-83
2023/06/22 07:58:11;;;;;;;15.80;9.80;;;44.30;68.80;;;;;;4995442;28;20548;-81
2023/06/22 08:00:37;;;;;;;11.23;10.23;;;42.60;55.20;;;;;;4988776;28;20949;-82
2023/06/22 08:03:04;;;;;;;16.40;10.77;;;41.50;49.20;;;;;;4990971;28;20180;-82
2023/06/22 08:05:30;;;;;;;11.87;10.53;;;41.60;46.40;;;;;;4988803;28;20255;-82
2023/06/22 08:07:56;;;;;;;12.10;11.00;;;43.50;46.40;;;;;;4996713;28;20508;-82
2023/06/22 08:10:21;;;;;;;10.43;9.53;;;44.00;42.80;;;;;;4992852;28;20481;-82
2023/06/22 08:12:47;;;;;;;11.13;9.97;;;44.80;40.10;;;;;;4992139;28;20246;-83
2023/06/22 08:15:13;;;;;;;10.73;9.60;;;45.80;36.20;;;;;;4990075;28;20188;-81
2023/06/22 08:17:38;;;;;;;11.73;10.70;;;45.10;30.00;;;;;;5000813;28;20268;-81
2023/06/22 08:20:11;;;;;;;11.80;10.70;;;43.40;25.80;;;;;;4996591;28;20228;-85
2023/06/22 08:22:37;;;;;;;12.17;11.03;;;41.20;22.60;;;;;;5002910;28;20187;-85
2023/06/22 08:25:03;;;;;;;12.10;11.00;;;39.20;20.50;;;;;;5000953;28;20474;-85
2023/06/22 08:27:31;;;;;;;15.00;11.77;;;37.90;20.20;;;;;;5001225;28;20546;-83
2023/06/22 08:29:58;;;;;;;11.07;9.97;;;37.40;21.30;;;;;;4988705;28;20503;-85
2023/06/22 08:32:28;;;;;;;12.03;10.77;;;38.20;25.10;;;;;;4980807;28;20447;-84
2023/06/22 08:34:54;;;;;;;10.77;9.77;;;40.20;27.40;;;;;;4985764;28;21222;-86
2023/06/22 08:37:20;;;;;;;10.70;9.70;;;41.20;28.60;;;;;;4984120;28;20838;-84
2023/06/22 08:39:46;;;;;;;14.33;9.40;;;43.90;29.90;;;;;;4988483;28;20579;-84
2023/06/22 08:42:12;;;;;;;10.73;9.37;;;46.20;29.70;;;;;;4987475;28;20227;-84
2023/06/22 08:44:37;;;;;;;8.97;8.20;;;47.30;27.40;;;;;;4986386;28;20439;-82
2023/06/22 08:47:03;;;;;;;9.27;8.40;;;47.30;24.70;;;;;;4988097;28;20215;-82
2023/06/22 08:49:29;;;;;;;7.77;7.07;;;47.70;22.40;;;;;;4984320;28;20289;-83
2023/06/22 08:51:56;;;;;;;8.07;7.30;;;48.00;20.90;;;;;;4989540;28;20188;-83
2023/06/22 08:54:22;;;;;;;10.80;8.47;;;46.90;16.60;;;;;;4994919;28;20200;-81
2023/06/22 08:56:47;;;;;;;9.27;8.37;;;45.30;14.40;;;;;;4997448;28;20435;-83
2023/06/22 08:59:13;;;;;;;9.20;8.30;;;43.50;12.10;;;;;;5005472;28;20251;-82
2023/06/22 09:01:38;;;;;;;8.00;7.20;;;42.40;11.80;;;;;;5005809;28;20199;-82
2023/06/22 09:04:05;;;;;;;7.90;7.20;;;42.30;13.30;;;;;;4993556;28;20200;-81
2023/06/22 09:06:31;;;;;;;8.00;7.20;;;41.70;12.70;;;;;;4991210;28;20665;-82
2023/06/22 09:08:59;;;;;;;8.03;5.63;;;42.30;24.60;;;;;;4978936;28;20461;-84
2023/06/22 09:11:25;;;;;;;7.30;6.60;;;42.70;14.80;;;;;;4985041;28;20439;-84
2023/06/22 09:13:51;;;;;;;9.73;7.93;;;42.50;14.30;;;;;;4983018;28;20443;-84
2023/06/22 09:16:17;;;;;;;8.13;7.33;;;42.20;14.10;;;;;;4984418;28;20180;-84
2023/06/22 09:18:47;;;;;;;9.60;8.60;;;42.10;15.10;;;;;;4990756;28;20430;-83
2023/06/22 09:21:12;;;;;;;8.43;7.57;;;42.60;15.10;;;;;;4984770;28;20200;-84
2023/06/22 09:23:38;;;;;;;8.57;7.77;;;43.20;16.30;;;;;;4987393;28;20764;-82
2023/06/22 09:26:04;;;;;;;8.87;7.70;;;43.60;16.00;;;;;;4987682;28;20266;-82
2023/06/22 09:28:29;;;;;;;11.47;7.13;;;43.90;15.90;;;;;;4991571;28;20177;-82
2023/06/22 09:30:58;;;;;;;8.30;7.43;;;43.90;14.90;;;;;;4982943;28;20224;-82
2023/06/22 09:33:23;;;;;;;9.83;6.30;;;43.60;14.30;;;;;;4990287;28;20178;-81
2023/06/22 09:35:50;;;;;;;7.97;7.37;;;43.30;13.60;;;;;;4993762;28;20921;-84
2023/06/22 09:38:16;;;;;;;9.20;7.33;;;43.10;12.80;;;;;;4984598;28;20435;-82
2023/06/22 09:40:42;;;;;;;7.63;7.03;;;42.30;11.50;;;;;;4991420;28;20446;-82
2023/06/22 09:43:07;;;;;;;7.27;6.57;;;41.80;11.80;;;;;;4985967;28;20186;-82
2023/06/22 09:45:33;;;;;;;11.63;7.17;;;41.10;11.30;;;;;;4998472;28;20175;-82
2023/06/22 09:47:58;;;;;;;7.20;6.57;;;40.70;11.90;;;;;;5002752;28;20190;-82
2023/06/22 09:50:24;;;;;;;7.40;6.53;;;39.90;11.60;;;;;;5004413;28;20646;-81
2023/06/22 09:52:54;;;;;;;7.67;6.80;;;38.80;11.40;;;;;;5001384;28;20204;-82
2023/06/22 09:55:26;;;;;;;7.87;7.17;;;37.60;11.40;;;;;;5000670;28;20180;-82
2023/06/22 09:57:52;;;;;;;7.40;6.70;;;36.30;11.90;;;;;;4988580;28;20510;-82
2023/06/22 10:00:18;;;;;;;7.80;7.13;;;35.30;12.60;;;;;;4991477;28;20443;-83
2023/06/22 10:02:44;;;;;;;7.47;6.77;;;34.30;14.90;;;;;;4992362;28;20325;-82
2023/06/22 10:05:10;;;;;;;6.77;6.23;;;33.40;15.50;;;;;;5002741;28;20498;-84
2023/06/22 10:07:39;;;;;;;7.07;6.37;;;32.70;26.30;;;;;;4993548;28;20442;-83
2023/06/22 10:10:06;;;;;;;9.23;7.00;;;32.10;18.00;;;;;;5001098;28;20215;-83
2023/06/22 10:12:32;;;;;;;6.80;6.20;;;31.60;19.30;;;;;;5001300;28;20426;-84
2023/06/22 10:14:57;;;;;;;7.17;6.47;;;31.30;21.20;;;;;;5002628;28;20502;-83
2023/06/22 10:17:23;;;;;;;6.70;6.00;;;30.90;21.80;;;;;;5010592;28;20269;-83
2023/06/22 10:19:48;;;;;;;7.13;6.53;;;30.60;23.50;;;;;;5001798;28;20211;-84
2023/06/22 10:22:14;;;;;;;7.40;6.47;;;30.30;25.20;;;;;;5001579;28;20192;-81
2023/06/22 10:24:44;;;;;;;7.40;6.60;;;30.00;27.20;;;;;;4998140;28;20180;-81
2023/06/22 10:27:10;;;;;;;7.27;6.60;;;29.80;29.10;;;;;;4997337;28;20173;-79
2023/06/22 10:29:36;;;;;;;7.57;6.77;;;29.70;30.00;;;;;;4998621;28;20481;-81
2023/06/22 10:32:02;;;;;;;11.23;7.30;;;29.60;33.10;;;;;;4997300;28;20800;-81
2023/06/22 10:34:27;;;;;;;8.63;6.90;;;29.50;35.60;;;;;;5000326;28;20210;-81
2023/06/22 10:36:53;;;;;;;9.20;7.60;;;29.40;40.00;;;;;;4994823;28;20604;-81
2023/06/22 10:39:18;;;;;;;12.23;7.70;;;29.20;44.20;;;;;;4996941;28;20266;-81
2023/06/22 10:41:44;;;;;;;9.30;8.33;;;29.00;47.20;;;;;;4990425;28;20195;-81
2023/06/22 10:44:10;;;;;;;9.60;7.60;;;28.70;53.60;;;;;;4990492;28;20179;-82
2023/06/22 10:46:36;;;;;;;9.80;8.47;;;28.50;67.10;;;;;;5003319;28;20191;-82
2023/06/22 10:49:01;;;;;;;8.10;7.30;;;28.30;93.70;;;;;;4960514;28;1043404;-81
2023/06/22 10:51:28;;;;;;;17.13;9.37;;;28.10;99.90;;;;;;4997711;28;20202;-80
2023/06/22 10:53:53;;;;;;;12.83;8.23;;;28.00;99.90;;;;;;5004022;28;20196;-81
2023/06/22 10:56:19;;;;;;;11.17;10.07;;;27.90;99.90;;;;;;5004250;28;20447;-82
2023/06/22 10:58:45;;;;;;;9.13;7.63;;;27.60;99.90;;;;;;5000533;28;20206;-83
2023/06/22 11:01:11;;;;;;;10.00;8.87;;;27.30;99.90;;;;;;4991870;28;20218;-81
2023/06/22 11:03:36;;;;;;;10.13;8.70;;;27.30;99.90;;;;;;4987696;28;20440;-82
2023/06/22 11:06:02;;;;;;;11.67;8.10;;;27.10;99.90;;;;;;4998242;28;20557;-82
2023/06/22 11:08:28;;;;;;;12.17;8.50;;;27.20;99.90;;;;;;4996755;28;20554;-80
2023/06/22 11:10:53;;;;;;;13.67;8.80;;;27.20;99.90;;;;;;4989273;28;20735;-81
2023/06/22 11:13:19;;;;;;;9.97;7.83;;;27.30;99.90;;;;;;4995383;28;20244;-80
2023/06/22 11:15:44;;;;;;;14.60;8.30;;;27.30;99.90;;;;;;4993048;28;20275;-81
2023/06/22 11:18:10;;;;;;;14.23;8.80;;;27.30;99.90;;;;;;4992536;28;20186;-81
2023/06/22 11:20:38;;;;;;;12.30;9.00;;;27.40;99.90;;;;;;5004357;28;20696;-80
2023/06/22 11:23:07;;;;;;;11.83;8.57;;;27.40;99.90;;;;;;5006039;28;20183;-82
2023/06/22 11:25:34;;;;;;;15.37;9.33;;;27.50;99.90;;;;;;5005198;28;20447;-80
2023/06/22 11:28:04;;;;;;;12.20;9.80;;;27.60;99.90;;;;;;5002873;28;20435;-80
2023/06/22 11:30:30;;;;;;;14.13;10.03;;;27.70;99.90;;;;;;4999021;28;20482;-79
2023/06/22 11:32:57;;;;;;;12.10;8.87;;;27.80;99.90;;;;;;4997147;28;20465;-81
2023/06/22 11:35:23;;;;;;;15.30;10.10;;;28.10;99.90;;;;;;4993252;28;20419;-84
2023/06/22 11:37:48;;;;;;;17.50;9.50;;;28.30;99.90;;;;;;5001443;28;21200;-81
2023/06/22 11:40:14;;;;;;;14.67;10.60;;;28.60;99.90;;;;;;4992583;28;20215;-79
2023/06/22 11:42:39;;;;;;;9.73;8.60;;;28.90;99.90;;;;;;4985438;28;20254;-80
2023/06/22 11:45:07;;;;;;;14.00;9.57;;;29.40;99.90;;;;;;4996201;28;20218;-78
2023/06/22 11:47:33;;;;;;;12.13;9.00;;;30.60;99.90;;;;;;5002546;28;20249;-81
2023/06/22 11:49:58;;;;;;;11.87;8.50;;;32.20;99.90;;;;;;4995112;28;20529;-80
2023/06/22 11:52:24;;;;;;;11.33;9.87;;;33.00;99.90;;;;;;5004278;28;20191;-81
2023/06/22 11:54:49;;;;;;;12.43;11.23;;;33.90;99.90;;;;;;4998422;28;20294;-81
2023/06/22 11:57:15;;;;;;;12.80;11.60;;;33.70;99.90;;;;;;5001675;28;20191;-81
2023/06/22 11:59:40;;;;;;;13.43;11.93;;;33.40;99.90;;;;;;4995024;28;20228;-80
2023/06/22 12:02:08;;;;;;;14.30;13.00;;;33.00;99.90;;;;;;4997469;28;20183;-81
2023/06/22 12:04:34;;;;;;;15.00;13.00;;;32.70;99.90;;;;;;5001801;28;20188;-80
2023/06/22 12:06:59;;;;;;;14.33;12.97;;;32.50;99.90;;;;;;5003945;28;20457;-80
2023/06/22 12:09:25;;;;;;;16.80;13.47;;;32.30;99.90;;;;;;4997663;28;20350;-80
2023/06/22 12:11:50;;;;;;;15.10;13.60;;;32.10;99.90;;;;;;5000528;28;20188;-80
2023/06/22 12:14:16;;;;;;;14.57;13.10;;;31.90;99.90;;;;;;5001796;28;20194;-81
2023/06/22 12:16:43;;;;;;;16.10;14.53;;;31.50;99.90;;;;;;5000480;28;20255;-80
2023/06/22 12:19:09;;;;;;;16.80;15.20;;;31.20;99.90;;;;;;4991266;28;20180;-81
2023/06/22 12:21:35;;;;;;;16.13;14.47;;;30.90;99.90;;;;;;4997673;28;20446;-79
2023/06/22 12:24:00;;;;;;;16.07;14.47;;;30.60;99.90;;;;;;5015896;28;20195;-80
2023/06/22 12:26:26;;;;;;;19.43;14.93;;;30.40;99.90;;;;;;4998493;28;20224;-80
2023/06/22 12:28:51;;;;;;;19.60;17.50;;;30.20;99.90;;;;;;5007466;28;20192;-81
2023/06/22 12:31:17;;;;;;;18.60;16.60;;;30.00;99.90;;;;;;5000959;28;20219;-81
2023/06/22 12:33:43;;;;;;;19.10;17.20;;;29.80;99.90;;;;;;5002951;28;20184;-81